KJSL/JSL METAR and TAF weather

Enter ICAO airport designator
Station Type Date Time Source
KJSL METAR 2019/09/22 17:00 UTC NOAA

KJSL 221700Z AUTO 15011KT CLR 30/24 A3004 RMK A01


Station Type Date Time Source
KJSL Decoded METAR 2019/09/22 17:00 UTC NOAA

Station name not available
Sep 22, 2019 - 01:00 PM EDT / 2019.09.22 1700 UTC
Wind: from the SSE (150 degrees) at 13 MPH (11 KT):0
Sky conditions: clear
Temperature: 86 F (30 C)
Heat index: 95.0 F (35.0 C):1
Dew Point: 75 F (24 C)
Relative Humidity: 70%
Pressure (altimeter): 30.04 in. Hg (1017 hPa)
ob: KJSL 221700Z AUTO 15011KT CLR 30/24 A3004 RMK A01
cycle: 17

Station Type Date Time Source
KJSL TAF UTC NOAA

Error!

Example: see airport list